Jump to content


UNITED AIRLINES FLIGHT UA1743 FLOWN ON 02-09-2018 BY CAPTAIN DEREK ROGY

Pilot StatsCaptain Derek Rogy (LDP86) • 1,528.3 total hours • 819 total flights [View Logbook]
FLIGHT DETAILS
StatusReceived and approved on 2018-02-09 at 13:02:20
Origin AirportDenver Intl (KDEN) • Denver, Colorado, United States (5,430 feet MSL)
Filed Flight PlanFLIGHT PLANNER OFFLINE
Destination AirportPalm Springs Intl (KPSP) • Palm Springs, California, United States (477 feet MSL)
Alternate AirportNone Filed
AirlineUnited Airlines
AircraftBoeing 737-900 | Winglets (73X / B737-900)
FS Aircraft UsedBoeing 737-924 United Airlines
Cruising AltitudeFL360
Distance Flown673 nautical miles
Passengers Onboard88 passengers (50.57% full)
DEPARTURE DETAILS
Time Out12:05:44
Taxi Data156,702 lbs total with 46,022 lbs of fuel onboard
Takeoff Data12:24:44 (19 minutes after leaving gate/ramp) • 155,708 lbs total • 8° pitch at 154 knots
Departure METARKDEN 091553Z 07007KT 1/8SM R35L/1400V2000FT FZFG VV002 M06/M07 A3002 RMK AO2 SFC VIS 1/4 SLP164 I1004 T10611072
ARRIVAL DETAILS
Landing Data13:09:56 • 145,033 lbs total • 4° pitch doing 124 knots at a rate of -210.69 feet/minute with 14,480 lbs of fuel onboard
Time In13:14:38 (5 minutes after landing)
Ramp Weight144,805 lbs total
Total Fuel Used31,542 lbs
Total Block Time02:09:28 (2.2 hours) while 24 minutes were spent on the ground
Arrival METARKPSP 091753Z 00000KT 10SM CLR 26/M02 A3000 RMK AO2 SLP156 T02561017 10256 20150 50003
MISCELLANEOUS DETAILS
LiveDISPATCH Version4.8.3.1
FS Version
FSUIPC Version5.12
OS VersionWindows 7 32-bit
Screen Resolution1920 x 1200
Pilot's CommentsT/O ALT - KGJT/// KDEN BAYLR3 TEHRU TBC J236 EED CLOWD1 KPSP - FL360
FLIGHT MAP